Time;durP1;ratioP1;P1;durP2;ratioP2;P2;SDS_P1;SDS_P2;PMS_P1;PMS_P2;Temp;Humidity;BMP_temperature;BMP_pressure;BME280_temperature;BME280_humidity;BME280_pressure;Samples;Min_cycle;Max_cycle;Signal;HPM_P1;HPM_P2
2023/08/11 00:01:32;;;;;;;;;7.25;5.00;;;;;25.01;44.28;101420.63;5040926;28;45242;-66
2023/08/11 00:03:58;;;;;;;;;7.00;7.00;;;;;24.96;43.93;101424.47;5039114;28;47731;-66
2023/08/11 00:06:25;;;;;;;;;9.50;8.00;;;;;24.95;44.10;101417.34;5041162;28;45411;-67
2023/08/11 00:08:50;;;;;;;;;9.75;9.00;;;;;24.93;43.89;101421.09;5041219;28;45230;-66
2023/08/11 00:11:15;;;;;;;;;9.00;7.00;;;;;24.91;44.28;101415.81;5040818;28;45641;-66
2023/08/11 00:13:42;;;;;;;;;13.00;10.00;;;;;24.91;44.21;101410.44;5040860;28;45234;-66
2023/08/11 00:16:08;;;;;;;;;8.00;7.00;;;;;24.90;44.65;101408.72;5022898;28;45494;-66
2023/08/11 00:18:33;;;;;;;;;9.25;8.25;;;;;24.88;44.00;101407.09;5040746;28;45971;-66
2023/08/11 00:20:59;;;;;;;;;6.00;5.25;;;;;24.85;44.19;101410.84;5040783;28;45325;-66
2023/08/11 00:23:24;;;;;;;;;7.00;7.00;;;;;24.83;44.76;101405.56;5040628;28;45358;-66
2023/08/11 00:25:50;;;;;;;;;8.50;7.25;;;;;24.82;44.76;101405.69;5040704;28;45327;-66
2023/08/11 00:28:15;;;;;;;;;8.25;7.00;;;;;24.82;44.36;101417.28;5040947;28;45432;-66
2023/08/11 00:30:41;;;;;;;;;7.00;5.75;;;;;24.79;44.31;101412.13;5038210;28;45398;-67
2023/08/11 00:33:06;;;;;;;;;7.50;7.50;;;;;24.77;44.49;101405.13;5039963;28;45692;-66
2023/08/11 00:35:31;;;;;;;;;6.75;6.25;;;;;24.75;44.23;101404.34;5032460;28;45313;-67
2023/08/11 00:37:57;;;;;;;;;9.25;8.00;;;;;24.72;44.60;101408.09;5021005;28;45294;-66
2023/08/11 00:40:23;;;;;;;;;7.75;7.75;;;;;24.71;44.76;101403.66;5020841;28;45509;-66
2023/08/11 00:42:52;;;;;;;;;6.50;5.25;;;;;24.67;44.90;101405.69;5020731;28;45397;-66
2023/08/11 00:45:18;;;;;;;;;7.75;7.00;;;;;24.65;44.71;101399.56;5020320;28;45368;-66
2023/08/11 00:47:45;;;;;;;;;9.75;7.00;;;;;24.63;45.18;101405.97;5020581;28;45452;-66
2023/08/11 00:50:13;;;;;;;;;8.50;8.50;;;;;24.60;44.94;101403.44;5020613;28;45332;-66
2023/08/11 00:52:38;;;;;;;;;6.50;5.75;;;;;24.58;45.00;101398.19;5020433;28;46217;-67
2023/08/11 00:55:05;;;;;;;;;7.50;6.00;;;;;24.55;45.05;101398.34;5020078;28;45456;-66
2023/08/11 00:57:31;;;;;;;;;6.75;6.00;;;;;24.52;44.84;101389.66;5020634;28;45210;-66
2023/08/11 00:59:57;;;;;;;;;5.50;5.50;;;;;24.53;45.01;101402.09;5017166;28;45553;-67
2023/08/11 01:02:23;;;;;;;;;7.00;7.00;;;;;24.51;45.14;101396.84;5040154;28;46542;-65
2023/08/11 01:04:48;;;;;;;;;10.00;7.00;;;;;24.50;45.04;101395.97;5039942;28;45368;-65
2023/08/11 01:07:27;;;;;;;;;5.25;5.00;;;;;24.47;45.16;101398.00;5022275;28;45398;-65
2023/08/11 01:09:52;;;;;;;;;7.50;6.00;;;;;24.45;44.85;101399.91;5040021;28;45554;-65
2023/08/11 01:12:40;;;;;;;;;6.00;6.00;;;;;24.41;45.03;101387.63;5028209;28;47090;-65
2023/08/11 01:15:26;;;;;;;;;6.50;5.75;;;;;24.41;45.38;101395.69;5039654;28;45332;-65
2023/08/11 01:17:53;;;;;;;;;7.25;6.50;;;;;24.38;45.26;101396.75;5039529;28;45472;-65
2023/08/11 01:20:20;;;;;;;;;6.25;6.25;;;;;24.33;45.37;101394.34;5022088;28;45417;-66
2023/08/11 01:22:50;;;;;;;;;6.75;5.75;;;;;24.31;45.08;101390.91;5039630;28;45517;-65
2023/08/11 01:25:15;;;;;;;;;8.25;6.25;;;;;24.30;45.37;101397.22;5039595;28;45258;-65
2023/08/11 01:27:45;;;;;;;;;6.50;6.50;;;;;24.28;45.34;101406.34;5039868;28;45167;-65
2023/08/11 01:30:12;;;;;;;;;7.50;7.00;;;;;24.27;45.29;101405.47;5039809;28;45651;-65
2023/08/11 01:32:38;;;;;;;;;8.00;7.00;;;;;24.25;45.35;101410.06;5039651;28;45347;-65
2023/08/11 01:35:05;;;;;;;;;6.50;6.50;;;;;24.22;45.48;101412.94;5039597;28;45238;-66
2023/08/11 01:37:31;;;;;;;;;7.75;6.75;;;;;24.20;45.37;101414.88;5021811;28;45261;-65
2023/08/11 01:39:57;;;;;;;;;8.25;7.50;;;;;24.18;45.47;101414.09;5039726;28;45514;-65
2023/08/11 01:42:23;;;;;;;;;9.50;7.50;;;;;24.16;45.42;101424.03;5039286;28;46234;-65
2023/08/11 01:44:48;;;;;;;;;9.25;8.00;;;;;24.12;45.67;101422.50;5039439;28;45407;-65
2023/08/11 01:47:16;;;;;;;;;9.00;7.50;;;;;24.09;45.64;101422.72;5039704;28;45301;-65
2023/08/11 01:49:42;;;;;;;;;8.75;7.00;;;;;24.08;45.94;101424.50;5039544;28;45611;-65
2023/08/11 01:52:08;;;;;;;;;11.50;10.00;;;;;24.01;45.64;101418.66;5039290;28;45241;-65
2023/08/11 01:54:34;;;;;;;;;8.75;7.75;;;;;24.05;45.74;101431.88;5038434;28;45281;-65
2023/08/11 01:57:00;;;;;;;;;12.00;9.00;;;;;24.00;45.69;101430.34;5039188;28;45305;-65
2023/08/11 01:59:25;;;;;;;;;9.25;8.50;;;;;23.99;45.88;101434.00;5039163;28;45242;-65
2023/08/11 02:01:51;;;;;;;;;7.25;7.25;;;;;23.97;45.95;101438.56;5039405;28;46456;-65
2023/08/11 02:04:17;;;;;;;;;7.25;7.00;;;;;23.94;46.06;101438.78;5039290;28;45282;-65
2023/08/11 02:06:43;;;;;;;;;8.25;8.25;;;;;23.94;45.98;101441.44;5039361;28;45365;-65
2023/08/11 02:09:12;;;;;;;;;10.75;9.25;;;;;23.91;46.03;101447.03;5037933;28;45491;-65
2023/08/11 02:11:38;;;;;;;;;8.25;8.00;;;;;23.88;46.27;101438.25;5020504;28;45528;-65
2023/08/11 02:14:07;;;;;;;;;9.25;8.25;;;;;23.81;46.53;101433.25;5039391;28;45253;-65
2023/08/11 02:16:33;;;;;;;;;10.00;8.00;;;;;23.81;46.38;101432.38;5039013;28;45410;-65
2023/08/11 02:18:59;;;;;;;;;6.50;6.50;;;;;23.80;46.53;101433.34;5039065;28;45502;-65
2023/08/11 02:21:26;;;;;;;;;7.75;7.75;;;;;23.79;46.39;101431.59;5038903;28;45337;-65
2023/08/11 02:23:52;;;;;;;;;10.00;9.25;;;;;23.78;46.54;101427.19;5039043;28;45258;-66
2023/08/11 02:26:17;;;;;;;;;8.00;8.00;;;;;23.76;46.50;101434.47;5038739;28;49044;-65
2023/08/11 02:28:42;;;;;;;;;7.00;7.00;;;;;23.74;46.53;101431.88;5042029;28;45387;-65
2023/08/11 02:31:08;;;;;;;;;9.00;8.00;;;;;23.73;46.56;101434.66;5024280;28;46811;-65
2023/08/11 02:33:34;;;;;;;;;11.00;10.25;;;;;23.71;46.58;101429.38;5042540;28;45272;-65
2023/08/11 02:36:00;;;;;;;;;10.25;10.25;;;;;23.69;46.61;101429.44;5042510;28;45320;-65
2023/08/11 02:38:25;;;;;;;;;8.50;8.50;;;;;23.67;47.03;101417.97;5042282;28;45254;-65
2023/08/11 02:40:50;;;;;;;;;10.75;9.25;;;;;23.63;46.62;101418.22;5040968;28;46153;-65
2023/08/11 02:43:16;;;;;;;;;7.00;7.00;;;;;23.65;46.74;101421.69;5042122;28;53145;-65
2023/08/11 02:45:41;;;;;;;;;9.00;9.00;;;;;23.59;46.74;101419.38;5042209;28;45221;-65
2023/08/11 02:48:06;;;;;;;;;10.50;8.50;;;;;23.63;46.65;101423.59;5042379;28;45574;-66
2023/08/11 02:50:32;;;;;;;;;11.00;8.50;;;;;23.62;46.96;101428.09;5042197;28;45416;-65
2023/08/11 02:52:58;;;;;;;;;9.75;9.25;;;;;23.61;46.72;101428.16;5042298;28;45345;-65
2023/08/11 02:55:23;;;;;;;;;9.25;9.00;;;;;23.58;46.98;101418.47;5042121;28;45459;-66
2023/08/11 02:57:49;;;;;;;;;8.75;7.00;;;;;23.52;46.73;101411.69;5042138;28;45321;-66
2023/08/11 03:00:14;;;;;;;;;9.00;9.00;;;;;23.56;46.82;101427.56;5041757;28;45760;-65
2023/08/11 03:02:41;;;;;;;;;10.00;8.00;;;;;23.53;46.88;101426.81;5041960;28;45360;-65
2023/08/11 03:05:07;;;;;;;;;6.00;6.00;;;;;23.52;47.21;101430.44;5042121;28;45357;-65
2023/08/11 03:07:34;;;;;;;;;9.00;8.75;;;;;23.51;47.04;101425.19;5041989;28;45240;-65
2023/08/11 03:10:00;;;;;;;;;7.00;6.00;;;;;23.50;47.10;101428.81;5041766;28;46158;-65
2023/08/11 03:12:27;;;;;;;;;12.75;9.00;;;;;23.46;47.12;101422.75;5041774;28;45293;-65
2023/08/11 03:14:53;;;;;;;;;9.00;9.00;;;;;23.46;47.32;101424.56;5041719;28;45304;-65
2023/08/11 03:17:18;;;;;;;;;11.75;11.00;;;;;23.47;47.14;101426.28;5031173;28;45409;-66
2023/08/11 03:19:43;;;;;;;;;8.75;8.75;;;;;23.43;47.24;101427.44;5024386;28;46021;-66
2023/08/11 03:22:09;;;;;;;;;12.50;9.25;;;;;23.44;47.12;101437.22;5020412;28;45430;-66
2023/08/11 03:24:34;;;;;;;;;13.25;10.75;;;;;23.40;47.36;101433.84;5021895;28;45414;-65
2023/08/11 03:26:59;;;;;;;;;12.75;9.75;;;;;23.37;47.34;101440.25;5021376;28;52812;-66
2023/08/11 03:29:24;;;;;;;;;13.00;11.50;;;;;23.32;47.37;101423.56;5021306;28;48691;-65
2023/08/11 03:31:50;;;;;;;;;14.50;11.75;;;;;23.34;47.52;101429.69;5021972;28;45360;-65
2023/08/11 03:34:15;;;;;;;;;10.00;10.00;;;;;23.31;47.75;101435.22;5021643;28;45337;-65
2023/08/11 03:36:40;;;;;;;;;9.50;8.75;;;;;23.27;47.55;101441.72;5021645;28;45436;-65
2023/08/11 03:39:06;;;;;;;;;11.00;10.00;;;;;23.29;47.62;101438.94;5020430;28;45830;-65
2023/08/11 03:41:31;;;;;;;;;11.00;10.25;;;;;23.27;47.34;101439.03;5021500;28;45346;-65
2023/08/11 03:43:57;;;;;;;;;11.00;9.00;;;;;23.25;47.65;101432.91;5021796;28;45250;-65
2023/08/11 03:46:22;;;;;;;;;8.25;8.25;;;;;23.24;47.51;101430.31;5020214;28;45652;-65
2023/08/11 03:48:47;;;;;;;;;10.00;10.00;;;;;23.24;47.72;101431.16;5021371;28;45295;-65
2023/08/11 03:51:13;;;;;;;;;10.00;8.25;;;;;23.24;47.74;101428.47;5021599;28;45203;-65
2023/08/11 03:53:42;;;;;;;;;11.50;9.00;;;;;23.23;47.65;101425.88;5003580;28;45298;-65
2023/08/11 03:56:07;;;;;;;;;9.75;9.75;;;;;23.17;47.57;101413.72;5021310;28;45503;-65
2023/08/11 03:58:37;;;;;;;;;10.00;9.75;;;;;23.19;47.99;101414.47;5024447;28;46301;-65
2023/08/11 04:01:02;;;;;;;;;8.50;8.50;;;;;23.16;47.75;101412.84;5041014;28;45377;-65
2023/08/11 04:03:30;;;;;;;;;10.00;8.75;;;;;23.16;47.76;101417.34;5041172;28;45294;-65
2023/08/11 04:05:57;;;;;;;;;9.50;8.75;;;;;23.14;48.03;101414.69;5040983;28;45393;-65
2023/08/11 04:08:22;;;;;;;;;9.00;8.75;;;;;23.12;47.68;101415.72;5040801;28;46332;-65
2023/08/11 04:10:47;;;;;;;;;11.00;10.00;;;;;23.09;48.00;101408.72;5040792;28;45349;-65
2023/08/11 04:13:13;;;;;;;;;12.25;9.50;;;;;23.08;48.45;101406.16;5040949;28;45480;-66
2023/08/11 04:15:39;;;;;;;;;9.75;9.00;;;;;23.02;48.42;101405.53;5040683;28;45448;-65
2023/08/11 04:18:04;;;;;;;;;9.50;8.50;;;;;23.04;48.08;101410.81;5040639;28;45944;-66
2023/08/11 04:20:30;;;;;;;;;11.25;10.00;;;;;23.02;48.33;101416.25;5040940;28;45369;-65
2023/08/11 04:22:55;;;;;;;;;11.25;9.00;;;;;23.00;48.26;101407.44;5040714;28;45369;-66
2023/08/11 04:25:21;;;;;;;;;9.50;9.00;;;;;22.97;48.11;101404.94;5040697;28;45543;-65
2023/08/11 04:27:46;;;;;;;;;13.50;10.25;;;;;22.95;48.32;101406.84;5040530;28;46026;-66
2023/08/11 04:30:12;;;;;;;;;11.00;10.25;;;;;22.94;48.19;101398.88;5040695;28;45261;-65
2023/08/11 04:32:37;;;;;;;;;7.50;7.50;;;;;22.92;48.13;101398.09;5040749;28;45334;-66
2023/08/11 04:35:06;;;;;;;;;9.00;9.00;;;;;22.92;48.55;101400.78;5039386;28;45198;-66
2023/08/11 04:37:33;;;;;;;;;8.00;8.00;;;;;22.88;48.50;101403.63;5040324;28;46260;-66
2023/08/11 04:39:58;;;;;;;;;9.25;9.00;;;;;22.84;48.30;101398.53;5040432;28;45623;-66
2023/08/11 04:42:23;;;;;;;;;10.00;9.00;;;;;22.83;48.42;101404.84;5040580;28;45293;-66
2023/08/11 04:44:48;;;;;;;;;9.50;9.50;;;;;22.84;48.69;101407.44;5040338;28;45508;-66
2023/08/11 04:47:14;;;;;;;;;9.00;8.00;;;;;22.82;48.31;101412.00;5039083;28;47224;-66
2023/08/11 04:49:40;;;;;;;;;11.25;9.75;;;;;22.81;48.19;101412.09;5040522;28;45329;-66
2023/08/11 04:52:05;;;;;;;;;12.50;8.50;;;;;22.79;48.44;101411.31;5040302;28;45364;-66
2023/08/11 04:54:30;;;;;;;;;8.75;8.00;;;;;22.78;48.73;101412.25;5040367;28;45295;-66
2023/08/11 04:56:56;;;;;;;;;8.25;8.00;;;;;22.77;48.64;101410.56;5040046;28;47663;-66
2023/08/11 04:59:21;;;;;;;;;10.00;10.00;;;;;22.75;48.59;101415.97;5040001;28;45462;-66
2023/08/11 05:01:46;;;;;;;;;9.75;9.00;;;;;22.71;48.91;101412.59;5040283;28;45336;-66
2023/08/11 05:04:12;;;;;;;;;12.25;10.50;;;;;22.72;48.99;101414.31;5040058;28;45534;-66
2023/08/11 05:06:37;;;;;;;;;11.00;9.75;;;;;22.67;48.64;101411.03;5039456;28;45321;-66
2023/08/11 05:09:03;;;;;;;;;7.75;7.75;;;;;22.68;49.05;101419.97;5040176;28;45338;-66
2023/08/11 05:11:29;;;;;;;;;9.50;9.25;;;;;22.67;48.95;101413.72;5040341;28;45386;-66
2023/08/11 05:13:55;;;;;;;;;11.00;9.00;;;;;22.67;49.18;101415.53;5039915;28;45195;-66
2023/08/11 05:16:21;;;;;;;;;13.00;10.00;;;;;22.66;48.99;101412.00;5039626;28;47095;-66
2023/08/11 05:18:46;;;;;;;;;9.00;8.00;;;;;22.66;49.07;101416.50;5039944;28;45193;-66
2023/08/11 05:21:15;;;;;;;;;9.00;9.00;;;;;22.64;48.91;101404.97;5032261;28;45198;-66
2023/08/11 05:23:41;;;;;;;;;14.50;13.00;;;;;22.63;49.20;101400.56;5019881;28;45310;-66
2023/08/11 05:26:06;;;;;;;;;12.75;10.25;;;;;22.62;49.37;101407.75;5019637;28;46405;-66
2023/08/11 05:28:31;;;;;;;;;8.00;8.00;;;;;22.59;49.38;101397.22;5019912;28;45321;-66
2023/08/11 05:30:57;;;;;;;;;7.75;7.00;;;;;22.61;49.11;101407.84;5019885;28;45216;-66
2023/08/11 05:33:24;;;;;;;;;11.00;8.50;;;;;22.59;49.19;101407.06;5019921;28;45520;-66
2023/08/11 05:35:50;;;;;;;;;11.75;10.75;;;;;22.60;49.22;101411.47;5019650;28;46532;-66
2023/08/11 05:38:15;;;;;;;;;11.00;11.00;;;;;22.58;49.43;101408.88;5019752;28;45204;-66
2023/08/11 05:40:42;;;;;;;;;10.25;10.00;;;;;22.58;49.07;101416.91;5019798;28;45156;-66
2023/08/11 05:43:08;;;;;;;;;10.75;8.25;;;;;22.57;49.48;101412.50;5019702;28;45545;-66
2023/08/11 05:45:33;;;;;;;;;9.50;9.50;;;;;22.56;49.41;101408.97;5019036;28;51947;-66
2023/08/11 05:47:59;;;;;;;;;10.25;7.50;;;;;22.57;49.86;101423.22;5019709;28;45314;-67
2023/08/11 05:50:24;;;;;;;;;10.50;10.00;;;;;22.55;49.64;101417.06;5019698;28;45390;-65
2023/08/11 05:52:49;;;;;;;;;10.00;10.00;;;;;22.54;49.30;101421.56;5019545;28;45309;-65
2023/08/11 05:55:15;;;;;;;;;9.75;9.75;;;;;22.52;49.91;101428.81;5019280;28;45432;-67
2023/08/11 05:57:40;;;;;;;;;9.50;9.00;;;;;22.52;49.69;101428.81;5019503;28;45444;-67
2023/08/11 06:00:08;;;;;;;;;11.25;9.25;;;;;22.53;49.97;101438.56;5035588;28;45384;-67
2023/08/11 06:02:34;;;;;;;;;8.75;8.75;;;;;22.48;49.82;101423.72;5039705;28;45258;-66
2023/08/11 06:04:59;;;;;;;;;7.25;7.25;;;;;22.47;49.42;101414.81;5042707;28;46033;-65
2023/08/11 06:07:24;;;;;;;;;10.00;8.75;;;;;22.52;49.73;101431.47;5031218;28;49344;-65
2023/08/11 06:09:50;;;;;;;;;12.00;11.00;;;;;22.52;49.92;101433.31;5012368;28;45396;-65
2023/08/11 06:12:15;;;;;;;;;9.00;9.00;;;;;22.51;50.14;101442.28;5028705;28;45214;-65
2023/08/11 06:14:41;;;;;;;;;11.00;9.00;;;;;22.51;49.86;101434.25;5042282;28;49967;-65
2023/08/11 06:17:06;;;;;;;;;11.25;10.50;;;;;22.49;50.07;101437.03;5042798;28;45349;-66
2023/08/11 06:19:32;;;;;;;;;14.25;12.00;;;;;22.52;50.24;101441.34;5042710;28;45299;-65
2023/08/11 06:21:57;;;;;;;;;10.00;9.00;;;;;22.53;50.19;101435.91;5042618;28;45226;-65
2023/08/11 06:24:23;;;;;;;;;13.25;12.25;;;;;22.53;50.25;101438.56;5042691;28;45391;-65
2023/08/11 06:26:49;;;;;;;;;12.75;11.50;;;;;22.50;50.52;101413.78;5024476;28;45769;-65
2023/08/11 06:29:15;;;;;;;;;14.00;11.25;;;;;22.55;50.28;101425.09;5042727;28;45312;-65
2023/08/11 06:31:42;;;;;;;;;10.00;8.00;;;;;22.54;50.35;101432.28;5042528;28;45520;-65
2023/08/11 06:34:08;;;;;;;;;11.50;11.50;;;;;22.57;50.69;101436.59;5042230;28;46169;-65
2023/08/11 06:36:33;;;;;;;;;10.50;9.00;;;;;22.58;51.03;101432.09;5024052;28;45443;-65
2023/08/11 06:38:58;;;;;;;;;12.00;10.00;;;;;22.60;51.00;101440.94;5042517;28;45209;-65
2023/08/11 06:41:23;;;;;;;;;10.00;9.50;;;;;22.60;50.70;101436.41;5042390;28;45456;-65
2023/08/11 06:43:49;;;;;;;;;6.25;4.25;;;;;22.60;51.08;101444.47;5042342;28;45233;-65
2023/08/11 06:46:15;;;;;;;;;11.25;11.00;;;;;22.64;51.22;101447.84;5042116;28;45187;-65
2023/08/11 06:48:41;;;;;;;;;11.25;10.25;;;;;22.62;51.12;101447.94;5024472;28;45355;-66
2023/08/11 06:51:06;;;;;;;;;10.75;8.50;;;;;22.62;51.01;101445.25;5041682;28;45545;-65
2023/08/11 06:53:31;;;;;;;;;11.00;9.75;;;;;22.63;51.46;101446.09;5042032;28;46293;-65
2023/08/11 06:55:56;;;;;;;;;11.00;10.00;;;;;22.62;50.89;101439.91;5040741;28;45422;-65
2023/08/11 06:58:22;;;;;;;;;12.00;10.75;;;;;22.65;51.51;101438.84;5042168;28;45233;-65
2023/08/11 07:00:47;;;;;;;;;11.25;11.00;;;;;22.66;51.34;101445.94;5040805;28;45634;-65
2023/08/11 07:03:13;;;;;;;;;10.75;10.75;;;;;22.68;51.15;101452.09;5041780;28;45981;-66
2023/08/11 07:05:38;;;;;;;;;13.75;12.75;;;;;22.69;51.24;101445.78;5042014;28;45411;-65
2023/08/11 07:08:04;;;;;;;;;15.00;12.00;;;;;22.69;51.98;101456.50;5042051;28;45328;-65
2023/08/11 07:10:29;;;;;;;;;16.75;11.25;;;;;22.72;51.52;101456.34;5042004;28;45535;-65
2023/08/11 07:12:54;;;;;;;;;13.50;11.00;;;;;22.71;51.81;101454.59;5041649;28;45396;-65
2023/08/11 07:15:19;;;;;;;;;12.00;12.00;;;;;22.75;51.48;101466.03;5040468;28;45380;-65
2023/08/11 07:17:45;;;;;;;;;12.50;10.75;;;;;22.78;52.10;101463.16;5041747;28;45317;-65
2023/08/11 07:20:11;;;;;;;;;14.75;11.25;;;;;22.80;51.89;101462.13;5041871;28;45316;-65
2023/08/11 07:22:36;;;;;;;;;12.25;11.00;;;;;22.83;52.22;101478.06;5041626;28;46064;-65
2023/08/11 07:25:01;;;;;;;;;10.00;10.00;;;;;22.85;52.12;101473.44;5041612;28;45340;-65
2023/08/11 07:27:27;;;;;;;;;10.25;9.00;;;;;22.88;52.29;101477.81;5041837;28;45342;-65
2023/08/11 07:29:52;;;;;;;;;8.00;8.00;;;;;22.90;52.22;101470.53;5028574;28;45624;-65
2023/08/11 07:32:17;;;;;;;;;14.00;10.50;;;;;22.95;52.46;101478.34;5026726;28;45515;-66
2023/08/11 07:34:43;;;;;;;;;11.00;10.25;;;;;23.00;52.75;101486.97;5021613;28;45264;-65
2023/08/11 07:37:08;;;;;;;;;12.00;8.00;;;;;23.02;53.06;101493.97;5021712;28;45242;-66
2023/08/11 07:39:33;;;;;;;;;14.00;13.00;;;;;23.07;52.99;101492.84;5021612;28;45285;-66
2023/08/11 07:42:02;;;;;;;;;10.00;8.00;;;;;23.12;52.52;101496.16;5021401;28;46526;-66
2023/08/11 07:44:32;;;;;;;;;9.75;9.50;;;;;23.18;52.87;101498.53;5021468;28;45329;-66
2023/08/11 07:46:58;;;;;;;;;13.00;10.25;;;;;23.24;53.34;101498.19;5021460;28;45260;-65
2023/08/11 07:49:27;;;;;;;;;10.50;10.00;;;;;23.30;53.58;101507.72;5020302;28;45552;-66
2023/08/11 07:51:53;;;;;;;;;8.75;8.00;;;;;23.34;53.38;101514.63;5021386;28;47105;-65
2023/08/11 07:54:19;;;;;;;;;12.25;11.00;;;;;23.39;53.23;101509.00;5020173;28;45683;-66
2023/08/11 07:56:44;;;;;;;;;8.00;7.75;;;;;23.44;53.30;101506.94;5021286;28;45288;-65
2023/08/11 07:59:11;;;;;;;;;6.00;5.00;;;;;23.49;53.38;101507.53;5029757;28;45328;-65
2023/08/11 08:01:36;;;;;;;;;11.00;9.00;;;;;23.54;53.44;101509.00;5041183;28;45933;-65
2023/08/11 08:04:03;;;;;;;;;11.50;10.25;;;;;23.59;53.24;101505.19;5041095;28;45367;-65
2023/08/11 08:06:29;;;;;;;;;10.00;8.50;;;;;23.67;53.55;101509.19;5041304;28;45309;-65
2023/08/11 08:08:54;;;;;;;;;9.25;8.00;;;;;23.70;53.02;101508.97;5041137;28;45241;-66
2023/08/11 08:11:20;;;;;;;;;10.75;10.50;;;;;23.77;53.60;101514.00;5040825;28;45261;-65
2023/08/11 08:13:45;;;;;;;;;8.25;8.25;;;;;23.80;53.52;101511.16;5041016;28;45287;-66
2023/08/11 08:16:11;;;;;;;;;11.25;9.75;;;;;23.88;53.19;101514.25;5040927;28;45241;-66
2023/08/11 08:18:36;;;;;;;;;8.25;7.00;;;;;23.91;53.22;101511.44;5041078;28;45424;-66
2023/08/11 08:21:01;;;;;;;;;12.25;9.25;;;;;23.95;53.30;101512.97;5040756;28;46034;-66
2023/08/11 08:23:27;;;;;;;;;12.00;10.75;;;;;24.03;53.20;101523.25;5040810;28;45221;-66
2023/08/11 08:25:52;;;;;;;;;11.75;11.00;;;;;24.09;53.19;101525.56;5032531;28;45301;-66
2023/08/11 08:28:17;;;;;;;;;14.25;10.00;;;;;24.12;53.33;101519.16;5021090;28;45305;-66
2023/08/11 08:30:42;;;;;;;;;10.00;8.00;;;;;24.16;53.51;101521.59;5020476;28;45409;-66
2023/08/11 08:33:08;;;;;;;;;8.25;8.25;;;;;24.22;53.13;101516.78;5020796;28;45401;-65
2023/08/11 08:35:34;;;;;;;;;9.50;9.25;;;;;24.27;53.52;101514.69;5020803;28;45412;-66
2023/08/11 08:38:00;;;;;;;;;12.75;10.00;;;;;24.31;53.08;101508.19;5020786;28;45338;-66
2023/08/11 08:40:26;;;;;;;;;9.00;8.75;;;;;24.38;53.40;101514.03;5020102;28;52833;-66
2023/08/11 08:42:52;;;;;;;;;9.50;8.50;;;;;24.43;52.91;101511.97;5020799;28;45314;-65
2023/08/11 08:45:18;;;;;;;;;10.25;9.50;;;;;24.44;53.13;101502.91;5020283;28;45338;-66
2023/08/11 08:47:46;;;;;;;;;13.00;11.50;;;;;24.53;53.24;101510.44;5020980;28;45444;-65
2023/08/11 08:50:12;;;;;;;;;11.00;9.25;;;;;24.58;53.20;101516.38;5018923;28;45396;-65
2023/08/11 08:52:39;;;;;;;;;11.50;9.00;;;;;24.61;53.48;101516.19;5020580;28;45201;-65
2023/08/11 08:55:05;;;;;;;;;14.75;11.25;;;;;24.68;53.19;101511.34;5020253;28;45409;-65
2023/08/11 08:57:30;;;;;;;;;13.00;12.75;;;;;24.74;53.43;101515.47;5020439;28;45302;-65
2023/08/11 08:59:56;;;;;;;;;12.25;11.00;;;;;24.79;53.33;101516.03;5034953;28;46044;-65
2023/08/11 09:02:27;;;;;;;;;10.00;10.00;;;;;24.84;53.07;101505.88;5040295;28;45258;-65
2023/08/11 09:04:53;;;;;;;;;11.25;10.25;;;;;24.90;53.13;101502.78;5040285;28;45383;-65
2023/08/11 09:07:19;;;;;;;;;12.00;9.25;;;;;24.96;53.52;101505.09;5040262;28;45280;-65
2023/08/11 09:09:44;;;;;;;;;10.25;9.75;;;;;25.02;52.76;101511.94;5039869;28;45542;-66
2023/08/11 09:12:10;;;;;;;;;12.25;10.50;;;;;25.08;53.35;101505.28;5039631;28;52864;-65
2023/08/11 09:14:38;;;;;;;;;9.75;8.25;;;;;25.14;53.23;101507.59;5038674;28;45570;-66
2023/08/11 09:17:04;;;;;;;;;12.00;11.00;;;;;25.16;53.41;101508.34;5040203;28;45413;-65
2023/08/11 09:19:30;;;;;;;;;12.50;9.25;;;;;25.23;53.28;101507.00;5031875;28;45286;-65
2023/08/11 09:21:55;;;;;;;;;12.50;11.25;;;;;25.29;52.88;101505.72;5019957;28;45318;-65
2023/08/11 09:24:22;;;;;;;;;12.75;12.00;;;;;25.36;53.04;101506.19;5020073;28;45163;-66
2023/08/11 09:26:51;;;;;;;;;5.00;5.00;;;;;25.42;53.20;101517.47;5019919;28;45427;-65
2023/08/11 09:29:17;;;;;;;;;12.75;10.75;;;;;25.49;52.74;101517.06;5019562;28;45461;-65
2023/08/11 09:31:47;;;;;;;;;11.25;11.25;;;;;25.55;53.28;101519.38;5020211;28;45324;-65
2023/08/11 09:34:17;;;;;;;;;10.50;10.25;;;;;25.62;53.27;101518.84;5019884;28;45282;-66
2023/08/11 09:36:44;;;;;;;;;11.00;10.25;;;;;25.70;53.05;101520.16;5018776;28;45267;-65
2023/08/11 09:39:11;;;;;;;;;10.25;9.00;;;;;25.74;52.84;101522.56;5019433;28;46231;-66
2023/08/11 09:41:44;;;;;;;;;12.75;11.50;;;;;25.84;52.90;101525.50;5019739;28;45302;-65
2023/08/11 09:44:17;;;;;;;;;12.25;11.50;;;;;25.94;53.03;101534.69;5019578;28;45378;-65
2023/08/11 09:46:44;;;;;;;;;12.25;9.00;;;;;26.02;52.46;101528.78;5019574;28;45432;-66
2023/08/11 09:49:09;;;;;;;;;12.50;11.75;;;;;26.14;52.84;101528.94;5019354;28;47188;-65
2023/08/11 09:51:36;;;;;;;;;11.50;10.25;;;;;26.22;52.77;101529.31;5018193;28;45817;-66
2023/08/11 09:54:06;;;;;;;;;10.50;10.50;;;;;26.35;52.77;101532.91;5019742;28;45298;-65
2023/08/11 09:56:35;;;;;;;;;12.00;11.00;;;;;26.46;52.53;101551.00;5019242;28;45528;-66
2023/08/11 09:59:03;;;;;;;;;10.50;9.25;;;;;26.57;52.10;101540.34;5026334;28;47068;-66
2023/08/11 10:01:30;;;;;;;;;12.00;11.00;;;;;26.67;52.44;101542.41;5026869;28;45388;-66
2023/08/11 10:03:59;;;;;;;;;11.00;11.00;;;;;26.76;51.69;101548.03;5039491;28;45337;-65
2023/08/11 10:06:29;;;;;;;;;12.00;10.00;;;;;26.87;51.95;101549.97;5039221;28;45241;-66
2023/08/11 10:09:00;;;;;;;;;10.25;10.00;;;;;27.02;51.87;101555.22;5039260;28;45433;-66
2023/08/11 10:11:28;;;;;;;;;11.50;11.00;;;;;27.17;52.17;101553.28;5039023;28;45237;-66
2023/08/11 10:13:56;;;;;;;;;10.25;10.25;;;;;27.35;51.87;101548.41;5039029;28;45409;-66
2023/08/11 10:16:23;;;;;;;;;11.00;10.25;;;;;27.55;51.92;101555.06;5039254;28;45462;-66
2023/08/11 10:18:49;;;;;;;;;7.00;7.00;;;;;27.76;51.77;101549.03;5038934;28;46140;-66
2023/08/11 10:21:15;;;;;;;;;11.00;11.00;;;;;28.00;51.24;101551.72;5038970;28;45250;-66
2023/08/11 10:23:40;;;;;;;;;8.00;8.00;;;;;28.23;51.11;101547.31;5037823;28;45259;-66
2023/08/11 10:26:06;;;;;;;;;10.75;9.50;;;;;28.48;50.99;101538.19;5038857;28;45622;-66
2023/08/11 10:28:32;;;;;;;;;10.75;10.00;;;;;28.74;50.91;101538.00;5039099;28;46449;-66
2023/08/11 10:31:02;;;;;;;;;8.25;8.00;;;;;29.00;50.54;101537.78;5021006;28;45302;-66
2023/08/11 10:33:30;;;;;;;;;12.50;10.25;;;;;29.21;50.18;101534.31;5039115;28;45297;-66
2023/08/11 10:35:57;;;;;;;;;12.00;10.50;;;;;29.46;50.24;101530.47;5038934;28;45459;-66
2023/08/11 10:38:24;;;;;;;;;10.00;10.00;;;;;29.66;49.93;101520.69;5038964;28;46580;-66
2023/08/11 10:40:50;;;;;;;;;10.50;10.50;;;;;29.97;49.20;101534.41;5034758;28;46409;-66
2023/08/11 10:43:19;;;;;;;;;8.00;7.00;;;;;30.24;48.72;101531.22;5028258;28;45502;-66
2023/08/11 10:45:45;;;;;;;;;8.50;6.75;;;;;30.55;49.12;101541.28;5018574;28;45448;-66
2023/08/11 10:48:11;;;;;;;;;6.75;6.75;;;;;30.86;47.99;101527.75;5019274;28;46099;-66
2023/08/11 10:50:38;;;;;;;;;8.25;8.00;;;;;31.15;47.39;101527.03;5022364;28;45441;-66
2023/08/11 10:53:19;;;;;;;;;8.25;7.00;;;;;31.49;48.02;101532.13;5022581;28;45429;-66
2023/08/11 10:56:00;;;;;;;;;8.00;7.25;;;;;31.82;47.13;101524.59;5022283;28;45231;-66
2023/08/11 10:58:25;;;;;;;;;11.00;9.25;;;;;32.11;47.29;101534.63;5024520;28;46247;-67
2023/08/11 11:00:51;;;;;;;;;9.00;8.00;;;;;32.36;46.37;101534.03;5042020;28;45386;-67
2023/08/11 11:03:18;;;;;;;;;8.75;7.50;;;;;32.59;46.17;101541.84;5042014;28;45531;-66
2023/08/11 11:05:44;;;;;;;;;8.00;8.00;;;;;32.75;45.64;101548.59;5042259;28;45552;-66
2023/08/11 11:08:09;;;;;;;;;11.50;8.75;;;;;32.89;45.68;101532.63;5041696;28;46142;-67
2023/08/11 11:10:35;;;;;;;;;9.50;9.50;;;;;33.08;45.31;101538.13;5041992;28;45325;-67
2023/08/11 11:13:00;;;;;;;;;7.50;7.50;;;;;33.22;45.17;101541.22;5041794;28;45246;-66
2023/08/11 11:15:32;;;;;;;;;8.25;8.25;;;;;33.44;44.75;101540.97;5041821;28;45412;-67